createdAt,value
2023-03-04T00:05:43.042Z,86.01
2023-03-04T00:15:47.673Z,86.46
2023-03-04T00:25:50.779Z,86.46
2023-03-04T00:35:55.638Z,86.52
2023-03-04T00:45:58.548Z,86.79
2023-03-04T00:56:03.132Z,86.69
2023-03-04T01:06:08.703Z,87.04
2023-03-04T01:16:13.259Z,87.17
2023-03-04T01:26:18.332Z,87.28
2023-03-04T01:36:24.808Z,87.30
2023-03-04T01:46:29.888Z,87.72
2023-03-04T01:56:38.856Z,88.13
2023-03-04T02:06:44.278Z,88.08
2023-03-04T02:16:49.733Z,87.79
2023-03-04T02:26:54.284Z,87.27
2023-03-04T02:36:58.685Z,86.69
2023-03-04T02:47:06.732Z,86.43
2023-03-04T02:57:12.449Z,86.27
2023-03-04T03:07:20.072Z,86.30
2023-03-04T03:17:27.517Z,86.07
2023-03-04T03:27:32.731Z,86.04
2023-03-04T03:37:37.501Z,86.16
2023-03-04T03:47:41.788Z,86.10
2023-03-04T03:57:45.914Z,86.10
2023-03-04T04:07:53.013Z,86.02
2023-03-04T04:18:00.425Z,86.10
2023-03-04T04:28:24.881Z,86.18
2023-03-04T04:38:28.429Z,86.38
2023-03-04T04:48:36.258Z,86.41
2023-03-04T04:58:40.149Z,85.84
2023-03-04T05:08:44.525Z,85.74
2023-03-04T05:18:49.601Z,85.36
2023-03-04T05:28:54.548Z,85.65
2023-03-04T05:38:59.180Z,85.45
2023-03-04T05:49:03.899Z,85.31
2023-03-04T05:59:06.908Z,85.21
2023-03-04T06:09:16.886Z,85.50
2023-03-04T06:19:21.722Z,85.49
2023-03-04T06:39:56.345Z,85.46
2023-03-04T06:50:03.286Z,85.22
2023-03-04T07:00:07.721Z,85.62
2023-03-04T07:10:13.093Z,86.00
2023-03-04T07:20:16.208Z,86.06
2023-03-04T07:30:23.133Z,85.55
2023-03-04T07:40:26.296Z,85.76
2023-03-04T07:50:31.235Z,86.01
2023-03-04T08:00:34.453Z,86.31
2023-03-04T08:10:40.038Z,86.05
2023-03-04T08:31:11.155Z,85.89
2023-03-04T08:41:16.877Z,85.16
2023-03-04T08:51:22.066Z,85.16
2023-03-04T09:01:25.354Z,85.21
2023-03-04T09:11:29.815Z,85.11
2023-03-04T09:21:32.877Z,85.57
2023-03-04T09:31:37.280Z,86.25
2023-03-04T09:41:44.348Z,85.41
2023-03-04T09:51:58.061Z,85.61
2023-03-04T10:02:04.369Z,85.57
2023-03-04T10:12:14.492Z,85.82
2023-03-04T10:22:23.081Z,84.87
2023-03-04T10:32:27.167Z,83.64
2023-03-04T10:42:38.010Z,82.52
2023-03-04T10:52:50.464Z,83.21
2023-03-04T11:02:53.562Z,82.54
2023-03-04T11:13:02.379Z,83.43
2023-03-04T11:23:11.581Z,84.87
2023-03-04T11:33:24.541Z,84.59
2023-03-04T11:43:35.440Z,83.00
2023-03-04T11:53:49.101Z,84.37
2023-03-04T12:04:27.679Z,84.90
2023-03-04T12:14:42.402Z,84.56
2023-03-04T12:25:04.184Z,83.54
2023-03-04T12:35:25.449Z,82.05
2023-03-04T12:45:34.102Z,82.36
2023-03-04T12:55:41.336Z,81.97
2023-03-04T13:06:04.385Z,81.78
2023-03-04T13:16:33.294Z,81.90
2023-03-04T13:26:37.680Z,81.63
2023-03-04T13:37:01.061Z,81.49
2023-03-04T13:47:11.538Z,80.44
2023-03-04T13:57:21.315Z,80.93
2023-03-04T14:07:27.277Z,80.80
2023-03-04T14:17:37.216Z,81.06
2023-03-04T14:27:40.516Z,81.77
2023-03-04T14:48:23.716Z,84.05
2023-03-04T14:58:30.278Z,83.42
2023-03-04T15:08:37.077Z,84.33
2023-03-04T15:18:56.507Z,84.49
2023-03-04T15:29:01.047Z,84.23
2023-03-04T15:39:05.981Z,84.39
2023-03-04T15:49:10.171Z,83.96
2023-03-04T15:59:16.819Z,84.01
2023-03-04T16:09:22.104Z,83.97
2023-03-04T16:19:30.579Z,83.71
2023-03-04T16:29:34.238Z,84.66
2023-03-04T16:39:41.669Z,85.28
2023-03-04T16:49:44.291Z,87.68
2023-03-04T16:59:49.135Z,87.99
2023-03-04T17:09:52.513Z,86.88
2023-03-04T17:19:57.457Z,86.36
2023-03-04T17:30:01.284Z,89.63
2023-03-04T17:40:09.226Z,90.98
2023-03-04T17:50:13.824Z,92.51
2023-03-04T18:00:21.000Z,94.45
2023-03-04T18:10:23.866Z,96.33
2023-03-04T18:20:28.346Z,96.18
2023-03-04T18:30:31.040Z,95.03
2023-03-04T18:40:35.464Z,95.30
2023-03-04T18:50:39.163Z,95.08
2023-03-04T19:00:44.159Z,94.38
2023-03-04T19:10:48.210Z,93.58
2023-03-04T19:20:54.085Z,93.34
2023-03-04T19:30:59.477Z,93.18
2023-03-04T19:41:11.656Z,92.14
2023-03-04T19:51:16.064Z,90.94
2023-03-04T20:01:28.258Z,90.67
2023-03-04T20:11:32.274Z,90.52
2023-03-04T20:21:37.340Z,89.58
2023-03-04T20:31:41.871Z,87.44
2023-03-04T20:41:46.553Z,87.34
2023-03-04T20:51:50.567Z,84.70
2023-03-04T21:01:55.617Z,83.74
2023-03-04T21:12:01.482Z,83.46
2023-03-04T21:22:06.288Z,82.66
2023-03-04T21:32:23.722Z,82.97
2023-03-04T21:42:30.352Z,83.36
2023-03-04T21:52:34.014Z,82.54
2023-03-04T22:02:38.902Z,82.44
2023-03-04T22:12:42.098Z,82.24
2023-03-04T22:22:47.101Z,82.65
2023-03-04T22:32:51.215Z,82.96
2023-03-04T22:42:57.286Z,82.45
2023-03-04T22:53:02.129Z,82.59
2023-03-04T23:03:08.497Z,82.40
2023-03-04T23:13:35.118Z,82.75
2023-03-04T23:34:06.932Z,82.17
2023-03-04T23:44:12.329Z,81.88
2023-03-04T23:54:16.435Z,82.20
